FMMI

Ivato Airport

Antananarivo, Madagascar
METAR FMMI 162130Z 10010KT 9999 FEW017 BKN020 19/16 Q1022 NOSIG
Observed Flight Rules
Dec-16 @ 21:30 UTC (33 minutes ago) Marginal Visual Flight Rules
Wind Visibility Clouds
100° at 10 knots 10,000+ meters
  • Few at 1,700' AGL
  • Broken at 2,000' AGL
Temperatures Readings
Current 19°C / 66°F
Dewpoint 16°C / 61°F
Humidity 83%
Altimeter 30.18" Hg
Pressure 1022 hPa
Elevation 1276
METAR FMMI 162130Z 10010KT 9999 FEW017 BKN020 19/16 Q1022 NOSIG
Observed Flight Rules
Dec-16 @ 21:30 UTC
(33 minutes ago)
MVFR
Wind Visibility
100° at 10 knots 10,000+ meters
Clouds
  • Few at 1,700' AGL
  • Broken at 2,000' AGL
Temperature Dewpoint
19°C / 66°F 16°C / 61°F
Humidity Altimeter Pressure
83% 30.18" Hg 1022 hPa